sensor_id;sensor_type;location;lat;lon;timestamp;pressure;altitude;pressure_sealevel;temperature;humidity
84797;BME280;75028;51.374;21.078;2024-01-15T00:00:07;97487.97;;;0.79;94.66
84797;BME280;75028;51.374;21.078;2024-01-15T00:02:34;97475.22;;;0.76;94.45
84797;BME280;75028;51.374;21.078;2024-01-15T00:05:00;97458.47;;;0.69;93.98
84797;BME280;75028;51.374;21.078;2024-01-15T00:07:26;97478.41;;;0.79;93.83
84797;BME280;75028;51.374;21.078;2024-01-15T00:09:52;97467.03;;;0.80;94.04
84797;BME280;75028;51.374;21.078;2024-01-15T00:12:18;97461.94;;;0.79;94.07
84797;BME280;75028;51.374;21.078;2024-01-15T00:14:44;97456.19;;;0.75;94.28
84797;BME280;75028;51.374;21.078;2024-01-15T00:17:10;97465.25;;;0.81;93.08
84797;BME280;75028;51.374;21.078;2024-01-15T00:19:36;97455.25;;;0.76;93.19
84797;BME280;75028;51.374;21.078;2024-01-15T00:22:02;97458.56;;;0.78;92.85
84797;BME280;75028;51.374;21.078;2024-01-15T00:24:28;97447.81;;;0.72;93.15
84797;BME280;75028;51.374;21.078;2024-01-15T00:26:54;97445.94;;;0.74;92.86
84797;BME280;75028;51.374;21.078;2024-01-15T00:29:21;97441.53;;;0.74;92.51
84797;BME280;75028;51.374;21.078;2024-01-15T00:31:47;97434.16;;;0.70;93.06
84797;BME280;75028;51.374;21.078;2024-01-15T00:34:13;97418.22;;;0.63;92.37
84797;BME280;75028;51.374;21.078;2024-01-15T00:36:39;97420.81;;;0.63;93.01
84797;BME280;75028;51.374;21.078;2024-01-15T00:39:05;97418.28;;;0.73;91.41
84797;BME280;75028;51.374;21.078;2024-01-15T00:41:31;97414.53;;;0.66;91.54
84797;BME280;75028;51.374;21.078;2024-01-15T00:43:57;97411.81;;;0.67;92.02
84797;BME280;75028;51.374;21.078;2024-01-15T00:46:23;97405.66;;;0.68;91.46
84797;BME280;75028;51.374;21.078;2024-01-15T00:48:49;97405.66;;;0.68;91.98
84797;BME280;75028;51.374;21.078;2024-01-15T00:51:15;97398.94;;;0.66;91.82
84797;BME280;75028;51.374;21.078;2024-01-15T00:53:41;97403.34;;;0.65;91.56
84797;BME280;75028;51.374;21.078;2024-01-15T00:56:07;97398.13;;;0.65;91.33
84797;BME280;75028;51.374;21.078;2024-01-15T00:58:33;97403.19;;;0.67;91.42
84797;BME280;75028;51.374;21.078;2024-01-15T01:00:59;97396.66;;;0.72;90.82
84797;BME280;75028;51.374;21.078;2024-01-15T01:03:25;97399.91;;;0.74;91.56
84797;BME280;75028;51.374;21.078;2024-01-15T01:05:51;97382.56;;;0.75;91.05
84797;BME280;75028;51.374;21.078;2024-01-15T01:08:17;97388.47;;;0.77;91.04
84797;BME280;75028;51.374;21.078;2024-01-15T01:10:43;97382.41;;;0.76;90.54
84797;BME280;75028;51.374;21.078;2024-01-15T01:13:09;97390.34;;;0.75;92.33
84797;BME280;75028;51.374;21.078;2024-01-15T01:15:35;97371.53;;;0.52;95.42
84797;BME280;75028;51.374;21.078;2024-01-15T01:18:01;97367.09;;;0.43;95.65
84797;BME280;75028;51.374;21.078;2024-01-15T01:20:27;97365.34;;;0.44;95.42
84797;BME280;75028;51.374;21.078;2024-01-15T01:22:53;97357.94;;;0.39;95.69
84797;BME280;75028;51.374;21.078;2024-01-15T01:25:19;97341.09;;;0.34;96.00
84797;BME280;75028;51.374;21.078;2024-01-15T01:27:45;97350.25;;;0.38;94.75
84797;BME280;75028;51.374;21.078;2024-01-15T01:30:11;97349.47;;;0.47;94.60
84797;BME280;75028;51.374;21.078;2024-01-15T01:32:37;97340.59;;;0.49;94.00
84797;BME280;75028;51.374;21.078;2024-01-15T01:35:04;97350.28;;;0.47;94.54
84797;BME280;75028;51.374;21.078;2024-01-15T01:37:30;97342.06;;;0.42;94.32
84797;BME280;75028;51.374;21.078;2024-01-15T01:39:56;97347.00;;;0.45;94.27
84797;BME280;75028;51.374;21.078;2024-01-15T01:42:22;97327.31;;;0.43;93.13
84797;BME280;75028;51.374;21.078;2024-01-15T01:44:48;97337.16;;;0.49;94.44
84797;BME280;75028;51.374;21.078;2024-01-15T01:47:14;97343.63;;;0.54;93.99
84797;BME280;75028;51.374;21.078;2024-01-15T01:49:41;97345.53;;;0.52;94.04
84797;BME280;75028;51.374;21.078;2024-01-15T01:52:09;97334.44;;;0.50;94.08
84797;BME280;75028;51.374;21.078;2024-01-15T01:54:36;97323.34;;;0.48;93.93
84797;BME280;75028;51.374;21.078;2024-01-15T01:57:03;97320.75;;;0.48;93.76
84797;BME280;75028;51.374;21.078;2024-01-15T01:59:32;97326.09;;;0.47;94.61
84797;BME280;75028;51.374;21.078;2024-01-15T02:02:00;97325.38;;;0.45;94.37
84797;BME280;75028;51.374;21.078;2024-01-15T02:04:27;97327.84;;;0.46;94.31
84797;BME280;75028;51.374;21.078;2024-01-15T02:06:53;97313.03;;;0.37;93.70
84797;BME280;75028;51.374;21.078;2024-01-15T02:09:19;97320.19;;;0.45;93.63
84797;BME280;75028;51.374;21.078;2024-01-15T02:11:49;97315.81;;;0.45;93.74
84797;BME280;75028;51.374;21.078;2024-01-15T02:14:15;97318.28;;;0.47;93.50
84797;BME280;75028;51.374;21.078;2024-01-15T02:16:41;97298.59;;;0.44;92.45
84797;BME280;75028;51.374;21.078;2024-01-15T02:19:07;97299.69;;;0.51;92.20
84797;BME280;75028;51.374;21.078;2024-01-15T02:21:40;97294.91;;;0.56;91.93
84797;BME280;75028;51.374;21.078;2024-01-15T02:24:06;97294.06;;;0.56;92.12
84797;BME280;75028;51.374;21.078;2024-01-15T02:26:32;97305.88;;;0.60;91.79
84797;BME280;75028;51.374;21.078;2024-01-15T02:29:01;97300.81;;;0.58;92.42
84797;BME280;75028;51.374;21.078;2024-01-15T02:31:27;97290.69;;;0.55;91.71
84797;BME280;75028;51.374;21.078;2024-01-15T02:33:54;97277.94;;;0.52;91.75
84797;BME280;75028;51.374;21.078;2024-01-15T02:36:19;97290.53;;;0.57;91.84
84797;BME280;75028;51.374;21.078;2024-01-15T02:38:46;97284.50;;;0.56;91.35
84797;BME280;75028;51.374;21.078;2024-01-15T02:41:11;97282.75;;;0.57;91.01
84797;BME280;75028;51.374;21.078;2024-01-15T02:43:40;97270.84;;;0.54;91.09
84797;BME280;75028;51.374;21.078;2024-01-15T02:46:06;97268.63;;;0.50;91.39
84797;BME280;75028;51.374;21.078;2024-01-15T02:48:32;97266.84;;;0.50;91.96
84797;BME280;75028;51.374;21.078;2024-01-15T02:51:01;97253.31;;;0.56;91.06
84797;BME280;75028;51.374;21.078;2024-01-15T02:53:28;97261.13;;;0.56;90.79
84797;BME280;75028;51.374;21.078;2024-01-15T02:55:53;97256.75;;;0.57;90.23
84797;BME280;75028;51.374;21.078;2024-01-15T02:58:21;97255.06;;;0.56;90.49
84797;BME280;75028;51.374;21.078;2024-01-15T03:00:47;97239.91;;;0.51;90.58
84797;BME280;75028;51.374;21.078;2024-01-15T03:03:13;97236.47;;;0.51;90.40
84797;BME280;75028;51.374;21.078;2024-01-15T03:05:39;97235.78;;;0.49;90.12
84797;BME280;75028;51.374;21.078;2024-01-15T03:08:05;97231.28;;;0.51;90.41
84797;BME280;75028;51.374;21.078;2024-01-15T03:10:31;97222.25;;;0.45;90.27
84797;BME280;75028;51.374;21.078;2024-01-15T03:12:57;97226.66;;;0.54;89.76
84797;BME280;75028;51.374;21.078;2024-01-15T03:15:23;97228.41;;;0.54;90.35
84797;BME280;75028;51.374;21.078;2024-01-15T03:17:49;97233.09;;;0.60;89.77
84797;BME280;75028;51.374;21.078;2024-01-15T03:20:15;97216.09;;;0.56;89.75
84797;BME280;75028;51.374;21.078;2024-01-15T03:22:41;97203.78;;;0.48;90.30
84797;BME280;75028;51.374;21.078;2024-01-15T03:25:07;97199.53;;;0.47;90.05
84797;BME280;75028;51.374;21.078;2024-01-15T03:27:33;97202.81;;;0.49;89.58
84797;BME280;75028;51.374;21.078;2024-01-15T03:29:59;97191.19;;;0.53;89.60
84797;BME280;75028;51.374;21.078;2024-01-15T03:32:25;97203.25;;;0.54;90.39
84797;BME280;75028;51.374;21.078;2024-01-15T03:34:51;97177.53;;;0.51;89.26
84797;BME280;75028;51.374;21.078;2024-01-15T03:37:18;97185.44;;;0.59;89.35
84797;BME280;75028;51.374;21.078;2024-01-15T03:39:44;97194.88;;;0.60;89.58
84797;BME280;75028;51.374;21.078;2024-01-15T03:42:11;97185.44;;;0.59;90.01
84797;BME280;75028;51.374;21.078;2024-01-15T03:44:36;97177.66;;;0.59;89.40
84797;BME280;75028;51.374;21.078;2024-01-15T03:47:03;97173.56;;;0.57;90.33
84797;BME280;75028;51.374;21.078;2024-01-15T03:49:28;97194.63;;;0.63;89.75
84797;BME280;75028;51.374;21.078;2024-01-15T03:51:54;97185.31;;;0.61;89.99
84797;BME280;75028;51.374;21.078;2024-01-15T03:54:20;97191.47;;;0.69;89.51
84797;BME280;75028;51.374;21.078;2024-01-15T03:56:46;97193.81;;;0.72;89.95
84797;BME280;75028;51.374;21.078;2024-01-15T03:59:12;97178.34;;;0.71;89.29
84797;BME280;75028;51.374;21.078;2024-01-15T04:01:38;97175.03;;;0.69;90.03
84797;BME280;75028;51.374;21.078;2024-01-15T04:04:04;97162.19;;;0.67;89.16
84797;BME280;75028;51.374;21.078;2024-01-15T04:06:30;97138.09;;;0.56;89.85
84797;BME280;75028;51.374;21.078;2024-01-15T04:08:56;97164.25;;;0.64;90.19
84797;BME280;75028;51.374;21.078;2024-01-15T04:11:22;97142.63;;;0.54;89.32
84797;BME280;75028;51.374;21.078;2024-01-15T04:13:48;97162.06;;;0.59;90.17
84797;BME280;75028;51.374;21.078;2024-01-15T04:16:14;97160.41;;;0.58;90.32
84797;BME280;75028;51.374;21.078;2024-01-15T04:18:40;97166.97;;;0.62;89.86
84797;BME280;75028;51.374;21.078;2024-01-15T04:21:06;97154.13;;;0.61;90.55
84797;BME280;75028;51.374;21.078;2024-01-15T04:23:33;97154.94;;;0.61;90.57
84797;BME280;75028;51.374;21.078;2024-01-15T04:25:59;97150.41;;;0.63;90.59
84797;BME280;75028;51.374;21.078;2024-01-15T04:28:25;97143.97;;;0.67;89.19
84797;BME280;75028;51.374;21.078;2024-01-15T04:30:51;97134.81;;;0.63;89.37
84797;BME280;75028;51.374;21.078;2024-01-15T04:33:17;97138.78;;;0.67;89.47
84797;BME280;75028;51.374;21.078;2024-01-15T04:35:43;97140.31;;;0.70;89.33
84797;BME280;75028;51.374;21.078;2024-01-15T04:38:08;97121.53;;;0.66;89.18
84797;BME280;75028;51.374;21.078;2024-01-15T04:40:35;97126.47;;;0.69;89.59
84797;BME280;75028;51.374;21.078;2024-01-15T04:43:00;97130.03;;;0.68;89.93
84797;BME280;75028;51.374;21.078;2024-01-15T04:45:27;97119.91;;;0.65;89.88
84797;BME280;75028;51.374;21.078;2024-01-15T04:47:55;97119.38;;;0.71;89.73
84797;BME280;75028;51.374;21.078;2024-01-15T04:50:24;97123.16;;;0.67;90.70
84797;BME280;75028;51.374;21.078;2024-01-15T04:52:50;97106.34;;;0.62;91.06
84797;BME280;75028;51.374;21.078;2024-01-15T04:55:17;97113.63;;;0.58;90.87
84797;BME280;75028;51.374;21.078;2024-01-15T04:57:42;97109.78;;;0.53;92.59
84797;BME280;75028;51.374;21.078;2024-01-15T05:00:10;97110.88;;;0.50;92.25
84797;BME280;75028;51.374;21.078;2024-01-15T05:02:36;97113.19;;;0.53;92.35
84797;BME280;75028;51.374;21.078;2024-01-15T05:05:02;97107.59;;;0.48;93.34
84797;BME280;75028;51.374;21.078;2024-01-15T05:07:28;97109.25;;;0.49;92.75
84797;BME280;75028;51.374;21.078;2024-01-15T05:09:54;97103.22;;;0.49;92.91
84797;BME280;75028;51.374;21.078;2024-01-15T05:12:20;97110.47;;;0.45;92.94
84797;BME280;75028;51.374;21.078;2024-01-15T05:14:46;97104.59;;;0.43;93.25
84797;BME280;75028;51.374;21.078;2024-01-15T05:17:12;97095.97;;;0.43;93.23
84797;BME280;75028;51.374;21.078;2024-01-15T05:19:38;97112.66;;;0.40;93.99
84797;BME280;75028;51.374;21.078;2024-01-15T05:22:04;97104.84;;;0.40;93.37
84797;BME280;75028;51.374;21.078;2024-01-15T05:24:30;97103.91;;;0.41;94.06
84797;BME280;75028;51.374;21.078;2024-01-15T05:26:56;97104.84;;;0.40;93.57
84797;BME280;75028;51.374;21.078;2024-01-15T05:29:22;97095.41;;;0.39;92.46
84797;BME280;75028;51.374;21.078;2024-01-15T05:31:48;97097.19;;;0.39;92.80
84797;BME280;75028;51.374;21.078;2024-01-15T05:34:14;97092.81;;;0.39;92.59
84797;BME280;75028;51.374;21.078;2024-01-15T05:36:40;97094.47;;;0.50;91.28
84797;BME280;75028;51.374;21.078;2024-01-15T05:39:06;97081.19;;;0.53;90.42
84797;BME280;75028;51.374;21.078;2024-01-15T05:41:32;97088.88;;;0.54;90.90
84797;BME280;75028;51.374;21.078;2024-01-15T05:43:58;97088.88;;;0.54;90.50
84797;BME280;75028;51.374;21.078;2024-01-15T05:46:24;97078.31;;;0.46;90.31
84797;BME280;75028;51.374;21.078;2024-01-15T05:48:50;97076.41;;;0.48;89.85
84797;BME280;75028;51.374;21.078;2024-01-15T05:51:17;97070.53;;;0.46;89.83
84797;BME280;75028;51.374;21.078;2024-01-15T05:53:43;97075.88;;;0.54;89.62
84797;BME280;75028;51.374;21.078;2024-01-15T05:56:10;97086.09;;;0.56;89.98
84797;BME280;75028;51.374;21.078;2024-01-15T05:58:37;97085.44;;;0.54;88.89
84797;BME280;75028;51.374;21.078;2024-01-15T06:01:03;97085.28;;;0.55;89.08
84797;BME280;75028;51.374;21.078;2024-01-15T06:03:30;97072.31;;;0.55;89.30
84797;BME280;75028;51.374;21.078;2024-01-15T06:05:56;97082.41;;;0.58;88.85
84797;BME280;75028;51.374;21.078;2024-01-15T06:08:22;97069.69;;;0.55;89.63
84797;BME280;75028;51.374;21.078;2024-01-15T06:10:47;97074.63;;;0.58;89.06
84797;BME280;75028;51.374;21.078;2024-01-15T06:13:14;97069.56;;;0.57;88.77
84797;BME280;75028;51.374;21.078;2024-01-15T06:15:39;97071.63;;;0.63;88.32
84797;BME280;75028;51.374;21.078;2024-01-15T06:18:06;97075.28;;;0.60;88.36
84797;BME280;75028;51.374;21.078;2024-01-15T06:20:32;97072.81;;;0.59;88.63
84797;BME280;75028;51.374;21.078;2024-01-15T06:22:58;97086.09;;;0.65;89.67
84797;BME280;75028;51.374;21.078;2024-01-15T06:25:24;97076.66;;;0.55;89.85
84797;BME280;75028;51.374;21.078;2024-01-15T06:27:50;97070.81;;;0.53;89.97
84797;BME280;75028;51.374;21.078;2024-01-15T06:30:16;97076.41;;;0.48;90.87
84797;BME280;75028;51.374;21.078;2024-01-15T06:32:42;97088.16;;;0.52;91.16
84797;BME280;75028;51.374;21.078;2024-01-15T06:35:08;97082.41;;;0.49;91.82
84797;BME280;75028;51.374;21.078;2024-01-15T06:37:36;97085.84;;;0.40;92.98
84797;BME280;75028;51.374;21.078;2024-01-15T06:40:02;97079.16;;;0.28;94.91
84797;BME280;75028;51.374;21.078;2024-01-15T06:42:29;97087.06;;;0.26;96.16
84797;BME280;75028;51.374;21.078;2024-01-15T06:44:54;97082.84;;;0.16;97.13
84797;BME280;75028;51.374;21.078;2024-01-15T06:47:21;97085.28;;;0.08;97.35
84797;BME280;75028;51.374;21.078;2024-01-15T06:49:46;97080.94;;;0.08;97.21
84797;BME280;75028;51.374;21.078;2024-01-15T06:52:12;97086.38;;;0.05;97.54
84797;BME280;75028;51.374;21.078;2024-01-15T06:54:38;97062.75;;;-0.02;97.37
84797;BME280;75028;51.374;21.078;2024-01-15T06:57:05;97082.69;;;0.08;97.06
84797;BME280;75028;51.374;21.078;2024-01-15T06:59:33;97080.50;;;0.03;97.44
84797;BME280;75028;51.374;21.078;2024-01-15T07:01:59;97079.97;;;0.09;97.33
84797;BME280;75028;51.374;21.078;2024-01-15T07:04:25;97088.44;;;0.11;96.65
84797;BME280;75028;51.374;21.078;2024-01-15T07:06:51;97093.50;;;0.13;96.83
84797;BME280;75028;51.374;21.078;2024-01-15T07:09:19;97081.47;;;0.02;96.85
84797;BME280;75028;51.374;21.078;2024-01-15T07:11:46;97091.97;;;0.10;96.98
84797;BME280;75028;51.374;21.078;2024-01-15T07:14:15;97087.09;;;0.07;96.52
84797;BME280;75028;51.374;21.078;2024-01-15T07:16:41;97099.50;;;0.13;96.57
84797;BME280;75028;51.374;21.078;2024-01-15T07:19:07;97092.69;;;0.12;96.64
84797;BME280;75028;51.374;21.078;2024-01-15T07:21:33;97088.44;;;0.11;96.44
84797;BME280;75028;51.374;21.078;2024-01-15T07:23:59;97093.13;;;0.17;96.63
84797;BME280;75028;51.374;21.078;2024-01-15T07:26:25;97084.34;;;0.18;95.73
84797;BME280;75028;51.374;21.078;2024-01-15T07:28:51;97080.13;;;0.17;95.36
84797;BME280;75028;51.374;21.078;2024-01-15T07:31:17;97063.97;;;0.14;95.70
84797;BME280;75028;51.374;21.078;2024-01-15T07:33:43;97085.59;;;0.24;95.48
84797;BME280;75028;51.374;21.078;2024-01-15T07:36:09;97086.53;;;0.23;95.82
84797;BME280;75028;51.374;21.078;2024-01-15T07:38:35;97080.50;;;0.32;94.75
84797;BME280;75028;51.374;21.078;2024-01-15T07:41:02;97075.31;;;0.32;94.36
84797;BME280;75028;51.374;21.078;2024-01-15T07:43:30;97084.06;;;0.40;93.84
84797;BME280;75028;51.374;21.078;2024-01-15T07:45:57;97090.66;;;0.44;94.23
84797;BME280;75028;51.374;21.078;2024-01-15T07:48:24;97085.84;;;0.49;93.69
84797;BME280;75028;51.374;21.078;2024-01-15T07:50:50;97082.13;;;0.52;93.77
84797;BME280;75028;51.374;21.078;2024-01-15T07:53:15;97075.16;;;0.52;93.74
84797;BME280;75028;51.374;21.078;2024-01-15T07:55:42;97070.78;;;0.43;93.72
84797;BME280;75028;51.374;21.078;2024-01-15T07:58:08;97075.84;;;0.45;93.59
84797;BME280;75028;51.374;21.078;2024-01-15T08:00:34;97082.41;;;0.49;93.04
84797;BME280;75028;51.374;21.078;2024-01-15T08:03:00;97084.22;;;0.48;93.65
84797;BME280;75028;51.374;21.078;2024-01-15T08:05:26;97073.81;;;0.48;93.28
84797;BME280;75028;51.374;21.078;2024-01-15T08:07:52;97083.25;;;0.49;93.87
84797;BME280;75028;51.374;21.078;2024-01-15T08:10:18;97066.16;;;0.47;94.47
84797;BME280;75028;51.374;21.078;2024-01-15T08:12:44;97084.22;;;0.48;94.56
84797;BME280;75028;51.374;21.078;2024-01-15T08:15:11;97072.00;;;0.49;94.61
84797;BME280;75028;51.374;21.078;2024-01-15T08:17:37;97080.75;;;0.57;94.27
84797;BME280;75028;51.374;21.078;2024-01-15T08:20:03;97076.25;;;0.59;94.09
84797;BME280;75028;51.374;21.078;2024-01-15T08:22:30;97073.53;;;0.51;93.77
84797;BME280;75028;51.374;21.078;2024-01-15T08:24:56;97079.69;;;0.60;93.67
84797;BME280;75028;51.374;21.078;2024-01-15T08:27:22;97083.78;;;0.62;93.96
84797;BME280;75028;51.374;21.078;2024-01-15T08:29:48;97087.59;;;0.68;94.29
84797;BME280;75028;51.374;21.078;2024-01-15T08:32:14;97080.06;;;0.65;94.02
84797;BME280;75028;51.374;21.078;2024-01-15T08:34:41;97082.00;;;0.63;94.32
84797;BME280;75028;51.374;21.078;2024-01-15T08:37:08;97085.56;;;0.62;94.84
84797;BME280;75028;51.374;21.078;2024-01-15T08:39:34;97079.81;;;0.58;95.03
84797;BME280;75028;51.374;21.078;2024-01-15T08:42:01;97078.59;;;0.53;95.08
84797;BME280;75028;51.374;21.078;2024-01-15T08:44:28;97078.84;;;0.59;94.69
84797;BME280;75028;51.374;21.078;2024-01-15T08:46:53;97074.19;;;0.53;95.06
84797;BME280;75028;51.374;21.078;2024-01-15T08:49:20;97089.53;;;0.56;94.90
84797;BME280;75028;51.374;21.078;2024-01-15T08:51:45;97092.25;;;0.55;94.95
84797;BME280;75028;51.374;21.078;2024-01-15T08:54:12;97087.91;;;0.55;94.50
84797;BME280;75028;51.374;21.078;2024-01-15T08:56:37;97091.72;;;0.61;94.76
84797;BME280;75028;51.374;21.078;2024-01-15T08:59:04;97085.97;;;0.57;94.42
84797;BME280;75028;51.374;21.078;2024-01-15T09:01:30;97094.47;;;0.50;94.32
84797;BME280;75028;51.374;21.078;2024-01-15T09:03:56;97095.84;;;0.44;93.89
84797;BME280;75028;51.374;21.078;2024-01-15T09:06:22;97093.63;;;0.49;93.39
84797;BME280;75028;51.374;21.078;2024-01-15T09:08:49;97104.72;;;0.61;92.23
84797;BME280;75028;51.374;21.078;2024-01-15T09:11:14;97094.03;;;0.64;92.57
84797;BME280;75028;51.374;21.078;2024-01-15T09:13:41;97107.56;;;0.86;91.60
84797;BME280;75028;51.374;21.078;2024-01-15T09:16:08;97109.19;;;0.87;90.64
84797;BME280;75028;51.374;21.078;2024-01-15T09:18:38;97101.53;;;0.95;89.98
84797;BME280;75028;51.374;21.078;2024-01-15T09:21:08;97101.22;;;1.08;90.08
84797;BME280;75028;51.374;21.078;2024-01-15T09:23:38;97102.53;;;1.21;89.60
84797;BME280;75028;51.374;21.078;2024-01-15T09:26:03;97104.22;;;1.49;88.83
84797;BME280;75028;51.374;21.078;2024-01-15T09:28:29;97100.84;;;1.39;88.36
84797;BME280;75028;51.374;21.078;2024-01-15T09:30:55;97091.16;;;1.22;89.03
84797;BME280;75028;51.374;21.078;2024-01-15T09:33:21;97090.13;;;1.06;88.55
84797;BME280;75028;51.374;21.078;2024-01-15T09:35:47;97098.66;;;0.98;88.90
84797;BME280;75028;51.374;21.078;2024-01-15T09:38:14;97110.13;;;0.96;89.77
84797;BME280;75028;51.374;21.078;2024-01-15T09:40:43;97101.66;;;0.94;89.66
84797;BME280;75028;51.374;21.078;2024-01-15T09:43:09;97086.19;;;0.92;89.21
84797;BME280;75028;51.374;21.078;2024-01-15T09:45:36;97089.31;;;0.96;89.31
84797;BME280;75028;51.374;21.078;2024-01-15T09:48:03;97104.50;;;1.00;89.03
84797;BME280;75028;51.374;21.078;2024-01-15T09:50:29;97103.84;;;0.98;88.89
84797;BME280;75028;51.374;21.078;2024-01-15T09:52:55;97096.69;;;1.00;88.93
84797;BME280;75028;51.374;21.078;2024-01-15T09:55:23;97094.09;;;1.00;88.00
84797;BME280;75028;51.374;21.078;2024-01-15T09:57:49;97085.19;;;1.03;87.32
84797;BME280;75028;51.374;21.078;2024-01-15T10:00:18;97078.22;;;1.03;87.11
84797;BME280;75028;51.374;21.078;2024-01-15T10:02:45;97075.44;;;1.14;86.62
84797;BME280;75028;51.374;21.078;2024-01-15T10:05:11;97081.34;;;1.43;86.34
84797;BME280;75028;51.374;21.078;2024-01-15T10:07:38;97078.53;;;1.64;86.00
84797;BME280;75028;51.374;21.078;2024-01-15T10:10:05;97080.00;;;1.66;85.06
84797;BME280;75028;51.374;21.078;2024-01-15T10:12:33;97084.16;;;1.59;85.03
84797;BME280;75028;51.374;21.078;2024-01-15T10:15:01;97078.97;;;1.59;84.76
84797;BME280;75028;51.374;21.078;2024-01-15T10:17:27;97079.91;;;1.58;84.91
84797;BME280;75028;51.374;21.078;2024-01-15T10:19:53;97072.97;;;1.49;84.06
84797;BME280;75028;51.374;21.078;2024-01-15T10:22:19;97075.66;;;1.57;83.84
84797;BME280;75028;51.374;21.078;2024-01-15T10:24:45;97079.75;;;1.60;84.12
84797;BME280;75028;51.374;21.078;2024-01-15T10:27:12;97066.59;;;1.61;84.03
84797;BME280;75028;51.374;21.078;2024-01-15T10:29:38;97061.94;;;1.65;84.38
84797;BME280;75028;51.374;21.078;2024-01-15T10:32:08;97074.44;;;1.79;83.21
84797;BME280;75028;51.374;21.078;2024-01-15T10:34:38;97071.00;;;1.78;83.17
84797;BME280;75028;51.374;21.078;2024-01-15T10:37:07;97065.28;;;1.75;82.75
84797;BME280;75028;51.374;21.078;2024-01-15T10:39:33;97064.34;;;1.93;83.10
84797;BME280;75028;51.374;21.078;2024-01-15T10:41:59;97066.13;;;1.93;81.70
84797;BME280;75028;51.374;21.078;2024-01-15T10:44:25;97055.19;;;1.89;80.20
84797;BME280;75028;51.374;21.078;2024-01-15T10:46:51;97057.50;;;1.92;81.24
84797;BME280;75028;51.374;21.078;2024-01-15T10:49:18;97057.25;;;1.86;80.77
84797;BME280;75028;51.374;21.078;2024-01-15T10:51:47;97050.63;;;1.91;80.52
84797;BME280;75028;51.374;21.078;2024-01-15T10:54:13;97058.03;;;1.96;80.86
84797;BME280;75028;51.374;21.078;2024-01-15T10:56:41;97054.81;;;1.84;80.64
84797;BME280;75028;51.374;21.078;2024-01-15T10:59:08;97063.66;;;1.91;80.46
84797;BME280;75028;51.374;21.078;2024-01-15T11:01:36;97057.03;;;1.97;81.97
84797;BME280;75028;51.374;21.078;2024-01-15T11:04:02;97055.34;;;2.05;80.10
84797;BME280;75028;51.374;21.078;2024-01-15T11:06:41;97060.25;;;2.08;79.56
84797;BME280;75028;51.374;21.078;2024-01-15T11:09:08;97052.22;;;2.02;79.87
84797;BME280;75028;51.374;21.078;2024-01-15T11:11:41;97053.34;;;1.99;79.50
84797;BME280;75028;51.374;21.078;2024-01-15T11:14:07;97039.84;;;1.86;80.37
84797;BME280;75028;51.374;21.078;2024-01-15T11:16:53;97055.03;;;1.73;80.63
84797;BME280;75028;51.374;21.078;2024-01-15T11:19:19;97056.13;;;1.71;80.21
84797;BME280;75028;51.374;21.078;2024-01-15T11:21:45;97061.19;;;1.72;80.64
84797;BME280;75028;51.374;21.078;2024-01-15T11:24:37;97064.59;;;1.73;81.07
84797;BME280;75028;51.374;21.078;2024-01-15T11:27:05;97060.94;;;1.66;81.76
84797;BME280;75028;51.374;21.078;2024-01-15T11:29:33;97049.25;;;1.52;81.28
84797;BME280;75028;51.374;21.078;2024-01-15T11:32:02;97043.00;;;1.36;81.96
84797;BME280;75028;51.374;21.078;2024-01-15T11:34:52;97038.84;;;1.52;81.22
84797;BME280;75028;51.374;21.078;2024-01-15T11:37:20;97046.16;;;1.66;80.80
84797;BME280;75028;51.374;21.078;2024-01-15T11:39:47;97051.88;;;1.70;80.70
84797;BME280;75028;51.374;21.078;2024-01-15T11:42:14;97043.56;;;1.66;81.23
84797;BME280;75028;51.374;21.078;2024-01-15T11:44:41;97038.59;;;1.46;81.03
84797;BME280;75028;51.374;21.078;2024-01-15T11:47:09;97042.66;;;1.48;82.22
84797;BME280;75028;51.374;21.078;2024-01-15T11:52:16;97048.75;;;1.66;80.22
84797;BME280;75028;51.374;21.078;2024-01-15T11:54:50;97045.72;;;1.71;81.66
84797;BME280;75028;51.374;21.078;2024-01-15T12:00:09;97056.28;;;1.69;80.66
84797;BME280;75028;51.374;21.078;2024-01-15T12:02:44;97050.78;;;1.72;81.61
84797;BME280;75028;51.374;21.078;2024-01-15T12:05:17;97044.97;;;1.78;80.88
84797;BME280;75028;51.374;21.078;2024-01-15T12:07:45;97050.47;;;1.75;81.35
84797;BME280;75028;51.374;21.078;2024-01-15T12:10:13;97046.00;;;1.68;81.79
84797;BME280;75028;51.374;21.078;2024-01-15T12:15:21;97040.84;;;1.58;81.37
84797;BME280;75028;51.374;21.078;2024-01-15T12:17:47;97040.47;;;1.53;81.52
84797;BME280;75028;51.374;21.078;2024-01-15T12:20:13;97047.38;;;1.45;82.00
84797;BME280;75028;51.374;21.078;2024-01-15T12:22:41;97039.13;;;1.49;82.89
84797;BME280;75028;51.374;21.078;2024-01-15T12:25:07;97049.75;;;1.56;82.20
84797;BME280;75028;51.374;21.078;2024-01-15T12:27:33;97042.72;;;1.66;81.26
84797;BME280;75028;51.374;21.078;2024-01-15T12:29:59;97037.66;;;1.64;80.66
84797;BME280;75028;51.374;21.078;2024-01-15T12:32:26;97037.66;;;1.64;81.32
84797;BME280;75028;51.374;21.078;2024-01-15T12:34:52;97038.84;;;1.70;81.90
84797;BME280;75028;51.374;21.078;2024-01-15T12:37:18;97042.13;;;1.72;80.43
84797;BME280;75028;51.374;21.078;2024-01-15T12:39:47;97045.88;;;1.69;80.71
84797;BME280;75028;51.374;21.078;2024-01-15T12:42:14;97048.06;;;1.64;80.27
84797;BME280;75028;51.374;21.078;2024-01-15T12:44:45;97042.25;;;1.53;81.31
84797;BME280;75028;51.374;21.078;2024-01-15T12:47:12;97054.41;;;1.62;81.12
84797;BME280;75028;51.374;21.078;2024-01-15T12:49:38;97049.28;;;1.70;80.66
84797;BME280;75028;51.374;21.078;2024-01-15T12:52:09;97053.13;;;1.66;80.59
84797;BME280;75028;51.374;21.078;2024-01-15T12:54:35;97043.22;;;1.52;81.43
84797;BME280;75028;51.374;21.078;2024-01-15T12:57:01;97036.22;;;1.52;81.85
84797;BME280;75028;51.374;21.078;2024-01-15T12:59:27;97042.09;;;1.54;81.93
84797;BME280;75028;51.374;21.078;2024-01-15T13:01:54;97039.34;;;1.56;81.34
84797;BME280;75028;51.374;21.078;2024-01-15T13:04:23;97035.69;;;1.49;82.37